NCAR-RAP Real-Time Weather Data

Output produced by METARs form (12 May 2021  11:20 UTC)
found at http://weather.rap.ucar.edu/surface/
 
KBFL 121054Z AUTO 08003KT 9SM CLR 21/01 A2990 RMK AO2 SLP117 T02110011
KBFL 120954Z AUTO 08003KT 10SM CLR 21/01 A2989 RMK AO2 SLP114 T02110006
KBFL 120854Z 06005KT 9SM CLR 22/01 A2989 RMK AO2 SLP114 T02170011 50007
KBFL 120754Z 34004KT 9SM CLR 23/02 A2989 RMK AO2 SLP115 T02330022 403440183
KBFL 120654Z 00000KT 9SM CLR 24/01 A2988 RMK AO2 SLP113 T02390006
KBFL 120554Z 00000KT 9SM CLR 24/00 A2987 RMK AO2 SLP108 T02390000 10344 20239 51018
KBFL 120454Z 02004KT 9SM CLR 28/02 A2985 RMK AO2 SLP102 T02780017
KBFL 120354Z 02006KT 9SM CLR 29/03 A2983 RMK AO2 SLP095 T02940028
KBFL 120254Z 35007KT 8SM CLR 30/02 A2982 RMK AO2 SLP090 T03000022 53005
KBFL 120154Z 35009KT 8SM R30R/4500VP6000FT CLR 33/02 A2981 RMK AO2 SLP087 T03280017
KBFL 120054Z 33010KT 8SM CLR 34/01 A2980 RMK AO2 SLP085 T03390011
KBFL 112354Z 33012KT 9SM CLR 34/02 A2980 RMK AO2 SLP085 T03390022 10344 20289 56012
KBFL 112254Z 31010KT 9SM CLR 34/02 A2981 RMK AO2 SLP088 T03390022